Time;durP1;ratioP1;P1;durP2;ratioP2;P2;SDS_P1;SDS_P2;PMS_P1;PMS_P2;Temp;Humidity;BMP_temperature;BMP_pressure;BME280_temperature;BME280_humidity;BME280_pressure;Samples;Min_cycle;Max_cycle;Signal;HPM_P1;HPM_P2
2023/01/21 00:01:15;;;;;;;11.32;3.13;;;11.40;99.90;;;;;;5065705;28;20044;-74
2023/01/21 00:03:43;;;;;;;6.65;2.88;;;11.30;99.90;;;;;;5047881;28;20459;-73
2023/01/21 00:06:13;;;;;;;10.25;3.50;;;11.30;99.90;;;;;;5062001;28;20103;-74
2023/01/21 00:08:41;;;;;;;7.13;3.28;;;11.20;99.90;;;;;;5065045;28;20048;-74
2023/01/21 00:11:13;;;;;;;7.00;2.72;;;11.20;99.90;;;;;;5064403;28;20075;-74
2023/01/21 00:13:42;;;;;;;5.63;2.20;;;11.10;99.90;;;;;;5064579;28;20147;-73
2023/01/21 00:16:11;;;;;;;7.93;2.88;;;11.10;99.90;;;;;;5064948;28;20135;-74
2023/01/21 00:18:38;;;;;;;9.35;2.67;;;11.10;99.90;;;;;;5064738;28;20086;-74
2023/01/21 00:21:06;;;;;;;7.45;3.03;;;11.00;99.90;;;;;;5064297;28;20171;-74
2023/01/21 00:23:33;;;;;;;6.32;2.15;;;11.00;99.90;;;;;;5065989;28;20056;-74
2023/01/21 00:26:03;;;;;;;5.55;2.65;;;10.90;99.90;;;;;;5041784;28;20165;-75
2023/01/21 00:28:33;;;;;;;8.60;2.38;;;10.90;99.90;;;;;;5063705;28;20068;-74
2023/01/21 00:31:04;;;;;;;5.50;2.85;;;10.80;99.90;;;;;;5063375;28;20116;-74
2023/01/21 00:33:33;;;;;;;6.85;2.58;;;10.80;99.90;;;;;;5066659;28;20059;-74
2023/01/21 00:36:06;;;;;;;5.90;3.30;;;10.80;99.90;;;;;;5058372;28;20768;-74
2023/01/21 00:38:35;;;;;;;7.07;2.47;;;10.70;99.90;;;;;;5066430;28;20079;-74
2023/01/21 00:41:03;;;;;;;6.35;2.60;;;10.70;99.90;;;;;;5063343;28;20505;-74
2023/01/21 00:43:31;;;;;;;4.05;1.63;;;10.70;99.90;;;;;;5065377;28;20493;-74
2023/01/21 00:45:59;;;;;;;4.00;2.38;;;10.70;99.90;;;;;;5061845;28;20047;-74
2023/01/21 00:48:30;;;;;;;5.88;1.70;;;10.70;99.90;;;;;;5070458;28;20131;-74
2023/01/21 00:50:59;;;;;;;5.60;1.70;;;10.70;99.90;;;;;;5060416;28;20048;-74
2023/01/21 00:53:29;;;;;;;5.03;1.58;;;10.80;99.90;;;;;;5049842;28;20045;-74
2023/01/21 00:56:05;;;;;;;5.90;2.35;;;10.80;99.90;;;;;;5063290;28;20037;-74
2023/01/21 00:58:33;;;;;;;6.05;2.30;;;10.80;99.90;;;;;;5068148;28;20040;-75
2023/01/21 01:01:03;;;;;;;7.70;1.67;;;10.70;99.90;;;;;;5065180;28;20039;-74
2023/01/21 01:03:32;;;;;;;10.43;3.05;;;10.70;99.90;;;;;;5067220;28;20511;-74
2023/01/21 01:06:17;;;;;;;14.30;2.35;;;10.70;99.90;;;;;;5069787;28;20052;-74
2023/01/21 01:08:46;;;;;;;6.38;3.25;;;10.80;99.90;;;;;;5056627;28;20055;-75
2023/01/21 01:11:14;;;;;;;4.97;1.92;;;10.80;99.90;;;;;;5076941;28;20499;-75
2023/01/21 01:13:43;;;;;;;9.75;2.97;;;10.70;99.90;;;;;;5066059;28;20040;-74
2023/01/21 01:16:13;;;;;;;7.85;2.85;;;10.80;99.90;;;;;;5066228;28;20033;-75
2023/01/21 01:18:40;;;;;;;5.68;1.98;;;10.70;99.90;;;;;;5069399;28;20068;-75
2023/01/21 01:21:14;;;;;;;3.60;1.90;;;10.80;99.90;;;;;;5066879;28;20094;-75
2023/01/21 01:23:42;;;;;;;6.07;2.35;;;10.70;99.90;;;;;;5066918;28;20049;-75
2023/01/21 01:26:13;;;;;;;6.72;2.40;;;10.80;99.90;;;;;;5063181;28;20052;-75
2023/01/21 01:28:41;;;;;;;3.47;2.63;;;10.90;99.90;;;;;;5069317;28;20068;-75
2023/01/21 01:31:12;;;;;;;7.05;2.47;;;11.00;99.90;;;;;;5032016;28;20082;-75
2023/01/21 01:33:40;;;;;;;6.88;2.55;;;11.00;99.90;;;;;;5067934;28;20056;-74
2023/01/21 01:36:15;;;;;;;5.70;2.70;;;11.10;99.90;;;;;;5059758;28;20049;-74
2023/01/21 01:38:43;;;;;;;11.90;6.35;;;11.10;99.90;;;;;;5062554;28;20398;-75
2023/01/21 01:41:22;;;;;;;15.13;5.72;;;11.10;99.90;;;;;;5066606;28;20039;-74
2023/01/21 01:44:00;;;;;;;10.95;3.80;;;11.10;99.90;;;;;;5066153;28;20047;-73
2023/01/21 01:46:30;;;;;;;10.70;3.70;;;11.00;99.90;;;;;;5066700;28;20395;-74
2023/01/21 01:49:06;;;;;;;19.38;7.93;;;11.00;99.90;;;;;;5068746;28;20506;-74
2023/01/21 01:51:41;;;;;;;5.22;2.72;;;11.00;99.90;;;;;;5066580;28;20107;-74
2023/01/21 01:54:10;;;;;;;7.93;4.25;;;11.00;99.90;;;;;;5067088;28;20043;-75
2023/01/21 01:56:42;;;;;;;5.50;3.03;;;10.90;99.90;;;;;;5065700;28;20512;-75
2023/01/21 01:59:10;;;;;;;11.30;3.95;;;10.80;99.90;;;;;;5067064;28;20037;-74
2023/01/21 02:01:38;;;;;;;14.00;8.30;;;10.80;99.90;;;;;;5064709;28;20064;-75
2023/01/21 02:04:10;;;;;;;11.32;3.80;;;10.80;99.90;;;;;;5066708;28;20554;-74
2023/01/21 02:06:39;;;;;;;16.35;7.72;;;10.90;99.90;;;;;;5061160;28;20491;-74
2023/01/21 02:09:07;;;;;;;6.30;3.47;;;10.80;99.90;;;;;;5062757;28;20134;-74
2023/01/21 02:11:36;;;;;;;9.80;3.25;;;10.90;99.90;;;;;;5048820;28;20056;-74
2023/01/21 02:14:04;;;;;;;10.27;3.63;;;10.90;99.90;;;;;;5067845;28;20033;-74
2023/01/21 02:16:58;;;;;;;5.03;2.83;;;10.90;99.90;;;;;;5067291;28;20061;-74
2023/01/21 02:19:44;;;;;;;23.40;7.85;;;11.00;99.90;;;;;;5066571;28;20470;-74
2023/01/21 02:22:19;;;;;;;13.65;6.28;;;11.00;99.90;;;;;;5064210;28;20502;-74
2023/01/21 02:25:10;;;;;;;18.95;5.80;;;11.00;99.90;;;;;;5068004;28;20044;-74
2023/01/21 02:27:44;;;;;;;20.45;3.33;;;10.90;99.90;;;;;;5047221;28;20060;-74
2023/01/21 02:30:43;;;;;;;10.75;2.10;;;10.90;99.90;;;;;;5047404;28;20688;-74
2023/01/21 02:33:53;;;;;;;11.20;4.05;;;10.90;99.90;;;;;;5057852;28;20083;-74
2023/01/21 02:36:36;;;;;;;5.85;2.15;;;10.80;99.90;;;;;;5043366;28;20045;-74
2023/01/21 02:39:34;;;;;;;6.32;2.53;;;10.80;99.90;;;;;;5049263;28;20209;-75
2023/01/21 02:42:09;;;;;;;4.90;2.30;;;10.80;99.90;;;;;;5064569;28;20063;-75
2023/01/21 02:44:47;;;;;;;9.02;2.15;;;10.80;99.90;;;;;;5069190;28;20123;-74
2023/01/21 02:47:20;;;;;;;4.93;2.33;;;10.80;99.90;;;;;;5068038;28;20064;-74
2023/01/21 02:50:09;;;;;;;4.35;2.08;;;10.80;99.90;;;;;;5065712;28;20320;-75
2023/01/21 02:52:36;;;;;;;6.65;2.67;;;10.80;99.90;;;;;;5058785;28;20441;-74
2023/01/21 02:55:05;;;;;;;6.75;2.13;;;10.70;99.90;;;;;;5066582;28;20052;-74
2023/01/21 02:57:36;;;;;;;7.85;3.45;;;10.70;99.90;;;;;;5064785;28;20040;-74
2023/01/21 03:00:11;;;;;;;8.77;2.97;;;10.80;99.90;;;;;;5066305;28;20056;-74
2023/01/21 03:02:51;;;;;;;4.35;3.20;;;10.70;99.90;;;;;;5059459;28;20083;-74
2023/01/21 03:05:48;;;;;;;10.88;4.53;;;10.80;99.90;;;;;;5050938;28;20048;-74
2023/01/21 03:08:22;;;;;;;14.43;5.20;;;10.80;99.90;;;;;;5034300;28;20163;-74
2023/01/21 03:11:00;;;;;;;4.57;2.47;;;10.80;99.90;;;;;;5067739;28;20058;-74
2023/01/21 03:19:20;;;;;;;5.35;2.15;;;10.80;99.90;;;;;;5068847;28;20048;-74
2023/01/21 03:21:50;;;;;;;14.25;5.20;;;10.80;99.90;;;;;;5066848;28;20056;-74
2023/01/21 03:24:19;;;;;;;7.18;1.85;;;10.80;99.90;;;;;;5068250;28;20041;-75
2023/01/21 03:26:51;;;;;;;3.72;1.92;;;10.80;99.90;;;;;;5051219;28;20074;-74
2023/01/21 03:29:23;;;;;;;5.68;1.95;;;10.80;99.90;;;;;;5067389;28;20052;-74
2023/01/21 03:31:55;;;;;;;7.80;2.58;;;10.80;99.90;;;;;;5050309;28;20808;-74
2023/01/21 03:34:25;;;;;;;6.05;2.67;;;10.70;99.90;;;;;;5068479;28;20048;-74
2023/01/21 03:36:59;;;;;;;7.90;2.38;;;10.70;99.90;;;;;;5067339;28;20465;-75
2023/01/21 03:39:56;;;;;;;5.35;2.03;;;10.70;99.90;;;;;;5050805;28;20048;-74
2023/01/21 03:42:24;;;;;;;10.52;3.78;;;10.80;99.90;;;;;;5045449;28;20059;-74
2023/01/21 03:44:51;;;;;;;8.45;3.03;;;10.80;99.90;;;;;;5067107;28;20125;-75
2023/01/21 03:47:24;;;;;;;5.45;2.47;;;10.70;99.90;;;;;;5066595;28;20044;-74
2023/01/21 03:49:55;;;;;;;5.15;2.35;;;10.80;99.90;;;;;;5066654;28;20037;-75
2023/01/21 03:52:25;;;;;;;15.50;2.92;;;10.80;99.90;;;;;;5050617;28;20048;-75
2023/01/21 03:54:53;;;;;;;6.85;2.30;;;10.80;99.90;;;;;;5067350;28;20067;-75
2023/01/21 03:57:20;;;;;;;8.05;3.58;;;10.90;99.90;;;;;;5066892;28;20044;-74
2023/01/21 03:59:48;;;;;;;6.40;2.25;;;10.80;99.90;;;;;;5050117;28;20048;-75
2023/01/21 04:02:19;;;;;;;25.00;12.52;;;10.80;99.90;;;;;;5067996;28;20048;-74
2023/01/21 04:04:47;;;;;;;7.47;2.22;;;10.70;99.90;;;;;;5068320;28;20127;-75
2023/01/21 04:07:15;;;;;;;6.45;3.13;;;10.80;99.90;;;;;;5067375;28;20064;-75
2023/01/21 04:09:42;;;;;;;17.05;2.25;;;10.70;99.90;;;;;;5066374;28;20052;-75
2023/01/21 04:12:11;;;;;;;5.55;1.85;;;10.70;99.90;;;;;;5067949;28;20499;-74
2023/01/21 04:14:38;;;;;;;4.90;1.85;;;10.60;99.90;;;;;;5066887;28;20436;-75
2023/01/21 04:17:06;;;;;;;6.93;2.70;;;10.60;99.90;;;;;;5067055;28;20132;-74
2023/01/21 04:19:33;;;;;;;8.50;3.35;;;10.50;99.90;;;;;;5067790;28;20471;-74
2023/01/21 04:22:01;;;;;;;4.28;2.65;;;10.50;99.90;;;;;;5071822;28;20056;-74
2023/01/21 04:24:29;;;;;;;12.85;4.55;;;10.50;99.90;;;;;;5070758;28;20044;-74
2023/01/21 04:26:56;;;;;;;24.58;4.70;;;10.50;99.90;;;;;;5071921;28;20048;-74
2023/01/21 04:29:23;;;;;;;8.23;4.00;;;10.40;99.90;;;;;;5071706;28;20080;-73
2023/01/21 04:31:51;;;;;;;5.82;2.95;;;10.40;99.90;;;;;;5070530;28;20063;-74
2023/01/21 04:34:19;;;;;;;8.70;2.13;;;10.50;99.90;;;;;;5071835;28;20057;-74
2023/01/21 04:36:46;;;;;;;9.32;3.63;;;10.40;99.90;;;;;;5054228;28;20080;-74
2023/01/21 04:39:14;;;;;;;8.65;2.65;;;10.50;99.90;;;;;;5071784;28;20040;-74
2023/01/21 04:41:41;;;;;;;8.20;3.00;;;10.50;99.90;;;;;;5069827;28;20060;-73
2023/01/21 04:44:09;;;;;;;6.03;2.42;;;10.50;99.90;;;;;;5053855;28;20052;-73
2023/01/21 04:46:36;;;;;;;5.95;2.97;;;10.50;99.90;;;;;;5070144;28;20048;-74
2023/01/21 04:49:04;;;;;;;11.75;2.58;;;10.50;99.90;;;;;;5071727;28;20052;-74
2023/01/21 04:51:31;;;;;;;6.45;2.95;;;10.40;99.90;;;;;;5070201;28;20070;-73
2023/01/21 04:53:59;;;;;;;4.35;2.17;;;10.40;99.90;;;;;;5053338;28;20048;-73
2023/01/21 04:56:26;;;;;;;9.57;4.05;;;10.40;99.90;;;;;;5069960;28;20041;-73
2023/01/21 04:58:53;;;;;;;10.30;4.10;;;10.40;99.90;;;;;;5053575;28;20051;-75
2023/01/21 05:01:21;;;;;;;6.78;3.28;;;10.40;99.90;;;;;;5071125;28;20787;-74
2023/01/21 05:03:49;;;;;;;17.10;9.27;;;10.30;99.90;;;;;;5069678;28;20075;-74
2023/01/21 05:06:16;;;;;;;5.88;2.67;;;10.40;99.90;;;;;;5069894;28;20463;-73
2023/01/21 05:08:44;;;;;;;6.85;2.50;;;10.40;99.90;;;;;;5071172;28;20058;-74
2023/01/21 05:11:14;;;;;;;8.20;2.72;;;10.40;99.90;;;;;;5070838;28;20529;-74
2023/01/21 05:13:42;;;;;;;5.95;3.45;;;10.40;99.90;;;;;;5069675;28;20473;-74
2023/01/21 05:16:09;;;;;;;7.53;4.35;;;10.40;99.90;;;;;;5069636;28;20589;-74
2023/01/21 05:18:37;;;;;;;5.57;2.53;;;10.30;99.90;;;;;;5070802;28;20076;-74
2023/01/21 05:21:05;;;;;;;4.97;2.28;;;10.30;99.90;;;;;;5069380;28;20052;-74
2023/01/21 05:23:33;;;;;;;15.23;5.22;;;10.30;99.90;;;;;;5070135;28;20048;-74
2023/01/21 05:26:00;;;;;;;7.47;3.33;;;10.30;99.90;;;;;;5070706;28;20964;-74
2023/01/21 05:28:28;;;;;;;6.57;2.35;;;10.30;99.90;;;;;;5053152;28;20118;-74
2023/01/21 05:31:00;;;;;;;11.05;6.25;;;10.20;99.90;;;;;;5068191;28;20227;-74
2023/01/21 05:33:33;;;;;;;8.70;4.35;;;10.20;99.90;;;;;;5049445;28;20052;-74
2023/01/21 05:36:01;;;;;;;11.50;3.65;;;10.20;99.90;;;;;;5050468;28;20051;-74
2023/01/21 05:38:29;;;;;;;8.68;3.38;;;10.20;99.90;;;;;;5065509;28;20483;-74
2023/01/21 05:41:00;;;;;;;23.90;13.48;;;10.20;99.90;;;;;;5054438;28;20037;-74
2023/01/21 05:43:28;;;;;;;13.85;6.57;;;10.20;99.90;;;;;;5051795;28;20406;-74
2023/01/21 05:45:56;;;;;;;10.15;4.28;;;10.20;99.90;;;;;;5069091;28;20051;-74
2023/01/21 05:48:24;;;;;;;6.18;3.10;;;10.20;99.90;;;;;;5068967;28;20102;-74
2023/01/21 05:50:51;;;;;;;5.13;2.67;;;10.20;99.90;;;;;;5070047;28;20045;-74
2023/01/21 05:53:19;;;;;;;2.22;1.08;;;10.20;99.90;;;;;;5068198;28;20131;-75
2023/01/21 05:55:51;;;;;;;4.60;1.67;;;10.20;99.90;;;;;;5069907;28;20076;-75
2023/01/21 05:58:18;;;;;;;10.52;2.13;;;10.20;99.90;;;;;;5052109;28;20437;-74
2023/01/21 06:00:47;;;;;;;6.50;2.30;;;10.10;99.90;;;;;;5069983;28;20479;-75
2023/01/21 06:03:15;;;;;;;7.43;3.35;;;10.10;99.90;;;;;;5069662;28;20048;-75
2023/01/21 06:05:44;;;;;;;6.50;2.15;;;10.10;99.90;;;;;;5068527;28;20063;-75
2023/01/21 06:08:12;;;;;;;2.97;1.50;;;10.10;99.90;;;;;;5069861;28;20043;-75
2023/01/21 06:10:39;;;;;;;8.60;4.32;;;10.10;99.90;;;;;;5051595;28;20054;-74
2023/01/21 06:13:10;;;;;;;3.92;1.88;;;10.00;99.90;;;;;;5070002;28;20115;-74
2023/01/21 06:15:38;;;;;;;3.67;2.45;;;10.10;99.90;;;;;;5068153;28;20123;-74
2023/01/21 06:18:06;;;;;;;4.03;1.50;;;10.00;99.90;;;;;;5069563;28;20731;-75
2023/01/21 06:20:34;;;;;;;4.22;2.65;;;10.00;99.90;;;;;;5069797;28;20206;-74
2023/01/21 06:23:02;;;;;;;7.25;2.10;;;10.00;99.90;;;;;;5067819;28;20061;-75
2023/01/21 06:25:31;;;;;;;4.75;1.92;;;10.10;99.90;;;;;;5068334;28;20162;-75
2023/01/21 06:28:00;;;;;;;9.02;5.35;;;10.10;99.90;;;;;;5051590;28;20048;-76
2023/01/21 06:30:27;;;;;;;10.63;4.70;;;10.20;99.90;;;;;;5069370;28;20077;-76
2023/01/21 06:32:55;;;;;;;12.90;6.70;;;10.30;99.90;;;;;;5069271;28;20060;-76
2023/01/21 06:35:23;;;;;;;14.07;6.97;;;10.50;99.90;;;;;;5051368;28;20044;-76
2023/01/21 06:37:50;;;;;;;16.90;5.50;;;10.70;99.90;;;;;;5069104;28;20052;-75
2023/01/21 06:40:18;;;;;;;10.77;4.40;;;11.00;99.90;;;;;;5067788;28;20056;-75
2023/01/21 06:42:47;;;;;;;11.13;3.75;;;11.20;99.90;;;;;;5068975;28;20045;-75
2023/01/21 06:45:15;;;;;;;7.13;3.22;;;11.40;99.90;;;;;;5069205;28;20037;-75
2023/01/21 06:47:44;;;;;;;7.80;3.80;;;11.50;99.90;;;;;;5067833;28;20111;-75
2023/01/21 06:50:15;;;;;;;4.85;2.15;;;11.70;99.90;;;;;;5067886;28;20044;-75
2023/01/21 06:52:44;;;;;;;4.78;1.98;;;11.90;99.90;;;;;;5067944;28;20049;-75
2023/01/21 06:55:13;;;;;;;10.43;2.55;;;12.10;99.90;;;;;;5067672;28;20503;-75
2023/01/21 06:57:41;;;;;;;9.30;3.35;;;12.50;99.90;;;;;;5067535;28;20072;-75
2023/01/21 07:00:11;;;;;;;7.78;3.85;;;12.80;99.90;;;;;;5067345;28;20105;-75
2023/01/21 07:02:38;;;;;;;5.20;2.13;;;13.40;99.90;;;;;;5068903;28;20133;-74
2023/01/21 07:05:06;;;;;;;7.18;2.53;;;13.50;99.90;;;;;;5068588;28;20052;-74
2023/01/21 07:07:34;;;;;;;11.10;3.17;;;13.50;99.90;;;;;;5067200;28;20044;-75
2023/01/21 07:10:02;;;;;;;5.93;3.78;;;13.40;99.90;;;;;;5067327;28;20483;-75
2023/01/21 07:12:30;;;;;;;5.50;3.28;;;13.70;99.90;;;;;;5068559;28;20036;-74
2023/01/21 07:14:58;;;;;;;3.65;2.45;;;14.40;99.90;;;;;;5046523;28;20666;-74
2023/01/21 07:17:26;;;;;;;9.32;2.80;;;14.50;99.90;;;;;;5066558;28;20048;-74
2023/01/21 07:19:53;;;;;;;8.57;2.53;;;14.80;99.90;;;;;;5063849;28;20546;-73
2023/01/21 07:22:21;;;;;;;3.85;1.98;;;15.00;99.90;;;;;;5065896;28;20075;-74
2023/01/21 07:24:49;;;;;;;5.00;2.72;;;14.90;99.90;;;;;;5056837;28;20708;-74
2023/01/21 07:27:16;;;;;;;5.18;1.95;;;14.50;99.90;;;;;;5066859;28;20391;-75
2023/01/21 07:29:44;;;;;;;8.45;3.80;;;14.50;99.90;;;;;;5061861;28;20498;-75
2023/01/21 07:32:11;;;;;;;4.13;1.80;;;14.40;99.90;;;;;;5067407;28;20086;-76
2023/01/21 07:34:39;;;;;;;9.13;3.38;;;14.40;99.90;;;;;;5064461;28;20048;-75
2023/01/21 07:37:06;;;;;;;4.43;2.13;;;14.20;99.90;;;;;;5066544;28;20047;-74
2023/01/21 07:39:34;;;;;;;5.75;2.00;;;14.10;99.90;;;;;;5064713;28;20469;-74
2023/01/21 07:42:01;;;;;;;7.35;4.82;;;14.00;99.90;;;;;;5066802;28;20044;-76
2023/01/21 07:44:29;;;;;;;7.15;3.33;;;14.20;99.90;;;;;;5059150;28;20157;-76
2023/01/21 07:46:57;;;;;;;11.73;5.13;;;14.00;99.90;;;;;;5066094;28;20068;-74
2023/01/21 07:49:24;;;;;;;8.25;4.20;;;14.00;99.90;;;;;;5064995;28;20045;-75
2023/01/21 07:51:56;;;;;;;18.40;9.07;;;13.90;99.90;;;;;;5066569;28;20071;-75
2023/01/21 07:54:24;;;;;;;10.57;3.42;;;13.90;99.90;;;;;;5066688;28;20191;-73
2023/01/21 07:56:51;;;;;;;6.40;3.80;;;13.90;99.90;;;;;;5053323;28;20413;-76
2023/01/21 07:59:19;;;;;;;12.15;6.35;;;14.00;99.90;;;;;;5067920;28;20055;-74
2023/01/21 08:01:47;;;;;;;8.32;4.70;;;13.90;99.90;;;;;;5070590;28;20058;-74
2023/01/21 08:04:14;;;;;;;14.07;5.95;;;13.60;99.90;;;;;;5061106;28;20037;-74
2023/01/21 08:06:42;;;;;;;7.15;3.83;;;13.30;99.90;;;;;;5064298;28;20394;-75
2023/01/21 08:09:10;;;;;;;10.10;3.45;;;13.20;99.90;;;;;;5066456;28;20040;-74
2023/01/21 08:11:37;;;;;;;12.88;6.05;;;12.90;99.90;;;;;;5059721;28;20041;-75
2023/01/21 08:14:05;;;;;;;8.85;3.17;;;12.80;99.90;;;;;;5061630;28;20045;-74
2023/01/21 08:16:33;;;;;;;5.45;2.25;;;13.10;99.90;;;;;;5071299;28;20048;-74
2023/01/21 08:19:00;;;;;;;4.47;1.88;;;13.30;99.90;;;;;;5061442;28;20048;-76
2023/01/21 08:21:28;;;;;;;2.13;1.10;;;13.60;99.90;;;;;;5067653;28;20603;-74
2023/01/21 08:23:55;;;;;;;4.18;1.35;;;13.80;99.90;;;;;;5056688;28;20037;-74
2023/01/21 08:26:23;;;;;;;2.78;1.38;;;13.70;99.90;;;;;;5053759;28;20717;-74
2023/01/21 08:28:55;;;;;;;4.90;1.52;;;13.40;99.90;;;;;;5064412;28;20200;-73
2023/01/21 08:31:22;;;;;;;3.05;1.63;;;13.20;99.90;;;;;;5067443;28;20159;-75
2023/01/21 08:33:50;;;;;;;4.07;2.47;;;13.10;99.90;;;;;;5064632;28;20044;-74
2023/01/21 08:36:18;;;;;;;4.28;1.90;;;13.10;99.90;;;;;;5068072;28;20153;-74
2023/01/21 08:38:45;;;;;;;6.35;2.53;;;13.10;99.90;;;;;;5068629;28;20402;-73
2023/01/21 08:41:16;;;;;;;3.63;1.92;;;13.20;99.90;;;;;;5052514;28;20197;-74
2023/01/21 08:43:44;;;;;;;3.13;2.13;;;13.20;99.90;;;;;;5056982;28;20037;-75
2023/01/21 08:46:12;;;;;;;7.63;2.42;;;13.20;99.90;;;;;;5068034;28;20037;-75
2023/01/21 08:48:40;;;;;;;8.57;2.15;;;13.20;99.90;;;;;;5068756;28;20379;-75
2023/01/21 08:51:07;;;;;;;4.20;1.63;;;13.20;99.90;;;;;;5068681;28;20044;-74
2023/01/21 08:53:35;;;;;;;4.22;1.70;;;13.10;99.90;;;;;;5063078;28;20154;-76
2023/01/21 08:56:03;;;;;;;10.57;4.03;;;13.00;99.90;;;;;;5067238;28;20122;-75
2023/01/21 08:58:32;;;;;;;3.97;2.22;;;13.00;99.90;;;;;;5068384;28;20082;-75
2023/01/21 09:01:09;;;;;;;2.95;1.67;;;13.00;99.90;;;;;;5061633;28;20593;-75
2023/01/21 09:03:37;;;;;;;3.97;1.45;;;13.00;99.90;;;;;;5063639;28;20111;-75
2023/01/21 09:06:07;;;;;;;2.58;1.75;;;13.20;99.90;;;;;;5098698;28;20044;-75
2023/01/21 09:08:35;;;;;;;4.40;1.83;;;13.30;99.90;;;;;;5068645;28;20055;-76
2023/01/21 09:11:05;;;;;;;3.67;1.63;;;13.20;99.90;;;;;;5054016;28;20494;-75
2023/01/21 09:13:38;;;;;;;8.18;1.88;;;13.20;99.90;;;;;;5061998;28;20037;-76
2023/01/21 09:16:11;;;;;;;4.00;1.80;;;13.30;99.90;;;;;;5063969;28;20048;-76
2023/01/21 09:18:40;;;;;;;4.57;2.08;;;13.50;99.90;;;;;;5066771;28;20680;-76
2023/01/21 09:21:08;;;;;;;3.55;1.92;;;13.60;99.90;;;;;;5067881;28;20059;-76
2023/01/21 09:23:36;;;;;;;2.78;1.70;;;13.80;99.90;;;;;;5048445;28;20469;-75
2023/01/21 09:26:08;;;;;;;8.43;2.70;;;13.90;99.90;;;;;;5066673;28;20053;-76
2023/01/21 09:28:37;;;;;;;6.18;1.65;;;14.20;99.90;;;;;;5047505;28;20222;-76
2023/01/21 09:31:09;;;;;;;2.88;1.60;;;14.20;99.90;;;;;;5069786;28;20047;-75
2023/01/21 09:33:38;;;;;;;3.33;1.75;;;14.30;99.90;;;;;;5062306;28;20098;-76
2023/01/21 09:36:07;;;;;;;3.22;1.15;;;14.30;99.90;;;;;;5067667;28;20047;-76
2023/01/21 09:38:35;;;;;;;2.65;1.30;;;14.40;99.90;;;;;;5065768;28;20094;-76
2023/01/21 09:41:21;;;;;;;5.05;1.83;;;14.20;99.90;;;;;;5069656;28;20064;-76
2023/01/21 09:43:53;;;;;;;1.38;0.90;;;13.90;99.90;;;;;;5053427;28;20044;-76
2023/01/21 09:46:32;;;;;;;5.25;2.22;;;14.00;99.90;;;;;;5066972;28;20617;-76
2023/01/21 09:49:02;;;;;;;4.25;1.80;;;14.20;99.90;;;;;;5066286;28;20150;-76
2023/01/21 09:51:59;;;;;;;5.85;1.85;;;14.00;99.90;;;;;;5038674;28;20143;-76
2023/01/21 09:54:32;;;;;;;5.63;1.90;;;13.80;99.90;;;;;;5040877;28;20052;-75
2023/01/21 09:57:15;;;;;;;9.13;1.65;;;13.60;99.90;;;;;;5067403;28;20067;-75
2023/01/21 10:00:15;;;;;;;4.28;1.05;;;13.50;99.90;;;;;;5045100;28;20041;-76
2023/01/21 10:03:03;;;;;;;3.53;1.40;;;13.60;99.90;;;;;;5051894;28;20057;-76
2023/01/21 10:05:51;;;;;;;3.25;1.52;;;13.90;99.90;;;;;;5059853;28;20044;-76
2023/01/21 10:08:34;;;;;;;5.82;1.48;;;13.90;99.90;;;;;;5055725;28;20521;-75
2023/01/21 10:11:19;;;;;;;3.78;1.60;;;14.20;99.90;;;;;;5067106;28;20457;-76
2023/01/21 10:13:46;;;;;;;3.95;1.42;;;14.20;99.90;;;;;;5058087;28;20047;-77
2023/01/21 10:16:49;;;;;;;3.40;1.67;;;14.40;99.90;;;;;;5062665;28;20062;-75
2023/01/21 10:19:23;;;;;;;2.70;1.40;;;14.60;99.90;;;;;;4899047;28;20072;-75
2023/01/21 10:22:04;;;;;;;1.95;1.15;;;14.70;99.90;;;;;;5050883;28;20147;-76
2023/01/21 10:24:46;;;;;;;2.00;1.10;;;14.60;99.90;;;;;;5047848;28;20139;-75
2023/01/21 10:27:20;;;;;;;5.70;2.78;;;14.70;99.90;;;;;;5067296;28;20142;-74
2023/01/21 10:29:51;;;;;;;6.20;4.03;;;14.60;99.90;;;;;;5093792;28;20052;-75
2023/01/21 10:32:25;;;;;;;3.40;1.60;;;14.50;99.90;;;;;;5048548;28;20448;-75
2023/01/21 10:34:55;;;;;;;3.72;1.42;;;14.50;99.90;;;;;;5061573;28;20044;-75
2023/01/21 10:37:44;;;;;;;2.15;1.38;;;14.60;99.90;;;;;;5066746;28;20383;-75
2023/01/21 10:40:46;;;;;;;2.45;1.27;;;14.60;99.90;;;;;;5062213;28;20135;-76
2023/01/21 10:43:34;;;;;;;3.28;1.33;;;14.40;99.90;;;;;;5060485;28;20060;-75
2023/01/21 10:46:23;;;;;;;3.80;2.28;;;14.30;99.90;;;;;;5047769;28;20052;-75
2023/01/21 10:48:58;;;;;;;4.80;2.85;;;14.50;99.90;;;;;;5063292;28;20036;-74
2023/01/21 10:51:41;;;;;;;4.22;1.60;;;14.40;99.90;;;;;;5054911;28;20560;-75
2023/01/21 10:54:16;;;;;;;2.80;1.08;;;14.40;99.90;;;;;;5061647;28;20044;-72
2023/01/21 10:56:49;;;;;;;4.78;2.40;;;14.50;99.90;;;;;;5067230;28;20139;-74
2023/01/21 10:59:22;;;;;;;4.35;1.52;;;14.30;99.90;;;;;;5031001;28;20446;-73
2023/01/21 11:01:54;;;;;;;3.45;1.40;;;14.20;99.90;;;;;;5096317;28;20064;-73
2023/01/21 11:04:23;;;;;;;15.63;2.58;;;14.10;99.90;;;;;;5068616;28;20036;-74
2023/01/21 11:07:00;;;;;;;7.22;3.08;;;14.10;99.90;;;;;;5059453;28;20044;-73
2023/01/21 11:09:31;;;;;;;7.15;3.00;;;14.00;99.90;;;;;;5065762;28;20055;-73
2023/01/21 11:11:59;;;;;;;1.88;1.00;;;14.00;99.90;;;;;;5061276;28;20075;-74
2023/01/21 11:14:27;;;;;;;2.38;1.02;;;13.90;99.90;;;;;;5070294;28;20053;-74
2023/01/21 11:16:55;;;;;;;1.85;0.93;;;13.90;99.90;;;;;;5065086;28;20045;-74
2023/01/21 11:19:26;;;;;;;6.85;1.80;;;13.60;99.90;;;;;;5064600;28;20451;-73
2023/01/21 11:21:57;;;;;;;3.28;1.42;;;13.80;99.90;;;;;;5066832;28;20115;-74
2023/01/21 11:24:28;;;;;;;5.43;2.30;;;13.80;99.90;;;;;;5067672;28;20033;-71
2023/01/21 11:26:59;;;;;;;3.10;1.85;;;13.70;99.90;;;;;;5049061;28;20080;-74
2023/01/21 11:29:38;;;;;;;5.47;3.42;;;13.80;99.90;;;;;;5060945;28;20123;-73
2023/01/21 11:32:20;;;;;;;1.80;1.20;;;14.00;99.90;;;;;;5069930;28;20082;-73
2023/01/21 11:34:50;;;;;;;3.33;1.52;;;13.70;99.90;;;;;;5048532;28;20907;-74
2023/01/21 11:37:26;;;;;;;5.22;3.63;;;13.50;99.90;;;;;;5033370;28;20068;-74
2023/01/21 11:40:03;;;;;;;7.13;2.20;;;13.40;99.90;;;;;;5068461;28;20052;-73
2023/01/21 11:42:30;;;;;;;;;;;13.60;99.90;;;;;;5066192;28;20048;-74
2023/01/21 11:45:05;;;;;;;4.22;2.08;;;13.80;99.90;;;;;;5068590;28;19922;-74
2023/01/21 11:47:38;;;;;;;1.85;1.08;;;13.80;99.90;;;;;;5048311;28;20131;-75
2023/01/21 11:50:12;;;;;;;2.95;1.30;;;13.80;99.90;;;;;;5060502;28;20051;-75
2023/01/21 11:52:40;;;;;;;4.28;1.60;;;13.80;99.90;;;;;;5049546;28;20041;-75
2023/01/21 11:55:28;;;;;;;6.80;2.13;;;14.00;99.90;;;;;;5037969;28;20783;-74
2023/01/21 11:57:56;;;;;;;7.03;3.22;;;14.10;99.90;;;;;;5083372;28;20502;-75
2023/01/21 12:00:28;;;;;;;6.43;2.92;;;13.90;99.90;;;;;;5066584;28;20076;-75
2023/01/21 12:03:00;;;;;;;4.72;2.15;;;13.90;99.90;;;;;;5068503;28;20094;-75
2023/01/21 12:05:32;;;;;;;6.03;2.83;;;13.80;99.90;;;;;;5050630;28;20071;-74
2023/01/21 12:08:03;;;;;;;7.47;2.67;;;13.70;99.90;;;;;;5050602;28;20051;-74
2023/01/21 12:10:42;;;;;;;4.43;2.15;;;13.90;99.90;;;;;;5049691;28;20102;-73
2023/01/21 12:13:16;;;;;;;6.95;2.63;;;13.70;99.90;;;;;;5067314;28;20498;-74
2023/01/21 12:16:05;;;;;;;20.00;12.43;;;13.80;99.90;;;;;;5066733;28;20063;-73
2023/01/21 12:18:55;;;;;;;50.20;35.72;;;13.90;99.90;;;;;;5067627;28;20033;-75
2023/01/21 12:22:11;;;;;;;19.08;10.07;;;13.70;99.90;;;;;;5067699;28;20064;-74
2023/01/21 12:25:00;;;;;;;26.65;15.85;;;13.30;99.90;;;;;;5064462;28;20502;-74
2023/01/21 12:27:35;;;;;;;11.32;4.43;;;13.50;99.90;;;;;;5050666;28;20148;-76
2023/01/21 12:30:29;;;;;;;9.65;6.90;;;13.50;99.90;;;;;;5068193;28;20045;-75
2023/01/21 12:33:09;;;;;;;9.43;4.85;;;13.60;99.90;;;;;;5036872;28;20049;-75
2023/01/21 12:35:48;;;;;;;15.32;5.85;;;13.50;99.90;;;;;;5047698;28;20037;-74
2023/01/21 12:38:41;;;;;;;16.13;9.98;;;13.30;99.90;;;;;;5032677;28;20249;-74
2023/01/21 12:41:15;;;;;;;20.38;10.60;;;13.30;99.90;;;;;;5034289;28;20072;-74
2023/01/21 12:43:47;;;;;;;4.88;2.85;;;13.20;99.90;;;;;;5053648;28;20098;-75
2023/01/21 12:46:31;;;;;;;7.22;3.38;;;13.30;99.90;;;;;;5071624;28;20495;-74
2023/01/21 12:49:02;;;;;;;4.05;2.05;;;13.30;99.90;;;;;;5071642;28;20045;-74
2023/01/21 12:51:38;;;;;;;7.35;3.75;;;13.20;99.90;;;;;;5053866;28;20075;-75
2023/01/21 12:54:39;;;;;;;14.43;8.55;;;13.30;99.90;;;;;;5070526;28;20036;-74
2023/01/21 12:57:22;;;;;;;5.10;2.53;;;13.30;99.90;;;;;;5070314;28;20340;-73
2023/01/21 13:00:01;;;;;;;7.50;2.72;;;13.20;99.90;;;;;;5070160;28;20565;-74
2023/01/21 13:02:48;;;;;;;16.98;7.57;;;13.10;99.90;;;;;;5070361;28;20053;-74
2023/01/21 13:05:39;;;;;;;7.72;3.78;;;12.80;99.90;;;;;;5053514;28;20063;-74
2023/01/21 13:08:36;;;;;;;11.48;4.88;;;12.70;99.90;;;;;;5069434;28;20052;-73
2023/01/21 13:11:26;;;;;;;6.75;2.88;;;12.60;99.90;;;;;;5055496;28;20348;-75
2023/01/21 13:14:00;;;;;;;42.63;19.58;;;12.70;99.90;;;;;;5067893;28;20052;-74
2023/01/21 13:16:30;;;;;;;9.60;2.67;;;12.70;99.90;;;;;;5053461;28;20052;-73
2023/01/21 13:18:59;;;;;;;12.45;3.80;;;12.50;99.90;;;;;;5071299;28;20497;-74